createdAt,value
2018-02-06T14:36:54.112Z,1011.29
2018-02-06T14:37:54.015Z,1011.31
2018-02-06T14:38:53.915Z,1011.27
2018-02-06T14:39:53.794Z,1011.27
2018-02-06T14:40:53.704Z,1011.27
2018-02-06T14:41:53.587Z,1011.23
2018-02-06T14:42:53.467Z,1011.24
2018-02-06T14:43:53.369Z,1011.25
2018-02-06T14:44:53.263Z,1011.20
2018-02-06T14:45:53.145Z,1011.18
2018-02-06T14:46:53.054Z,1011.17
2018-02-06T14:47:52.943Z,1011.13
2018-02-06T14:48:52.825Z,1011.17
2018-02-06T14:49:52.728Z,1011.13
2018-02-06T14:50:52.615Z,1011.16
2018-02-06T14:51:52.502Z,1011.19
2018-02-06T14:52:52.398Z,1011.23
2018-02-06T14:53:52.292Z,1011.15
2018-02-06T14:54:52.181Z,1011.21
2018-02-06T14:55:52.116Z,1011.14
2018-02-06T14:56:51.980Z,1011.11
2018-02-06T14:57:51.861Z,1011.12
2018-02-06T14:58:51.753Z,1011.11
2018-02-06T14:59:51.657Z,1011.10
2018-02-06T15:00:51.532Z,1011.14
2018-02-06T15:01:51.434Z,1011.11
2018-02-06T15:02:51.333Z,1011.21
2018-02-06T15:03:51.211Z,1011.17
2018-02-06T15:04:51.115Z,1011.11
2018-02-06T15:05:51.008Z,1011.13
2018-02-06T15:06:50.893Z,1011.08
2018-02-06T15:07:50.796Z,1011.06
2018-02-06T15:08:50.690Z,1011.09
2018-02-06T15:09:50.566Z,1011.01
2018-02-06T15:10:50.482Z,1011.04
2018-02-06T15:11:50.363Z,1011.02
2018-02-06T15:12:50.252Z,1011.03
2018-02-06T15:13:50.149Z,1010.98
2018-02-06T15:14:50.035Z,1010.99
2018-02-06T15:15:49.938Z,1011.01
2018-02-06T15:16:49.817Z,1011.01
2018-02-06T15:17:49.714Z,1011.03
2018-02-06T15:18:49.604Z,1011.04
2018-02-06T15:19:49.493Z,1011.02
2018-02-06T15:20:49.401Z,1011.03
2018-02-06T15:21:49.283Z,1011.02
2018-02-06T15:22:49.177Z,1010.96
2018-02-06T15:23:49.074Z,1010.96
2018-02-06T15:24:48.956Z,1010.94
2018-02-06T15:25:48.853Z,1010.95
2018-02-06T15:26:48.750Z,1010.94
2018-02-06T15:27:48.633Z,1010.94
2018-02-06T15:28:48.532Z,1010.91
2018-02-06T15:29:48.428Z,1010.94
2018-02-06T15:30:48.311Z,1010.97
2018-02-06T15:31:48.216Z,1010.94
2018-02-06T15:32:48.107Z,1010.95
2018-02-06T15:33:47.984Z,1010.92
2018-02-06T15:34:47.897Z,1010.97
2018-02-06T15:35:47.784Z,1010.91
2018-02-06T15:36:47.671Z,1010.92
2018-02-06T15:37:47.565Z,1010.89
2018-02-06T15:38:47.457Z,1010.88
2018-02-06T15:39:47.344Z,1010.90
2018-02-06T15:40:47.237Z,1010.90
2018-02-06T15:41:47.133Z,1010.88
2018-02-06T15:42:47.021Z,1010.89
2018-02-06T15:43:46.920Z,1010.80
2018-02-06T15:44:46.820Z,1010.86
2018-02-06T15:45:46.703Z,1010.86
2018-02-06T15:46:46.593Z,1010.84
2018-02-06T15:47:46.492Z,1010.85
2018-02-06T15:48:46.377Z,1010.86
2018-02-06T15:49:46.269Z,1010.82
2018-02-06T15:50:46.158Z,1010.82
2018-02-06T15:51:46.052Z,1010.87
2018-02-06T15:52:45.964Z,1010.82
2018-02-06T15:53:45.841Z,1010.86
2018-02-06T15:54:45.729Z,1010.84
2018-02-06T15:55:45.631Z,1010.81
2018-02-06T15:56:45.511Z,1010.84
2018-02-06T15:57:45.420Z,1010.87
2018-02-06T15:58:45.309Z,1010.83
2018-02-06T15:59:45.185Z,1010.86
2018-02-06T16:00:45.086Z,1010.83
2018-02-06T16:01:44.984Z,1010.85
2018-02-06T16:02:44.863Z,1010.85
2018-02-06T16:03:44.770Z,1010.83
2018-02-06T16:04:44.646Z,1010.85
2018-02-06T16:05:44.545Z,1010.84
2018-02-06T16:06:44.446Z,1010.82
2018-02-06T16:07:44.325Z,1010.84
2018-02-06T16:08:44.223Z,1010.80
2018-02-06T16:09:44.120Z,1010.88
2018-02-06T16:10:44.005Z,1010.86
2018-02-06T16:11:43.901Z,1010.91
2018-02-06T16:12:43.780Z,1010.86
2018-02-06T16:13:43.682Z,1010.94
2018-02-06T16:14:43.577Z,1010.91
2018-02-06T16:15:43.459Z,1010.89
2018-02-06T16:16:43.360Z,1010.88
2018-02-06T16:17:43.292Z,1010.88
2018-02-06T16:18:43.136Z,1010.87
2018-02-06T16:19:43.048Z,1010.88
2018-02-06T16:20:42.921Z,1010.85
2018-02-06T16:21:42.814Z,1010.82
2018-02-06T16:22:42.713Z,1010.80
2018-02-06T16:23:42.599Z,1010.81
2018-02-06T16:24:42.500Z,1010.79
2018-02-06T16:25:42.394Z,1010.82
2018-02-06T16:26:42.277Z,1010.79
2018-02-06T16:27:42.185Z,1010.80
2018-02-06T16:28:42.054Z,1010.82
2018-02-06T16:29:41.952Z,1010.77
2018-02-06T16:30:41.852Z,1010.72
2018-02-06T16:31:41.734Z,1010.71
2018-02-06T16:32:41.633Z,1010.74
2018-02-06T16:33:41.517Z,1010.73
2018-02-06T16:34:41.410Z,1010.76
2018-02-06T16:35:41.309Z,1010.69
2018-02-06T16:36:41.191Z,1010.73
2018-02-06T16:37:41.087Z,1010.71
2018-02-06T16:38:40.991Z,1010.72
2018-02-06T16:39:40.887Z,1010.74
2018-02-06T16:40:40.772Z,1010.76
2018-02-06T16:41:40.650Z,1010.72
2018-02-06T16:42:40.547Z,1010.71
2018-02-06T16:43:40.440Z,1010.69
2018-02-06T16:44:40.327Z,1010.71
2018-02-06T16:45:40.230Z,1010.66
2018-02-06T16:46:40.105Z,1010.69
2018-02-06T16:47:40.010Z,1010.70
2018-02-06T16:48:39.900Z,1010.70
2018-02-06T16:49:39.785Z,1010.73
2018-02-06T16:50:39.704Z,1010.72
2018-02-06T16:51:39.564Z,1010.66
2018-02-06T16:52:39.464Z,1010.70
2018-02-06T16:53:39.362Z,1010.65
2018-02-06T16:54:39.240Z,1010.66
2018-02-06T16:55:39.144Z,1010.62
2018-02-06T16:56:39.026Z,1010.62
2018-02-06T16:57:38.920Z,1010.62
2018-02-06T16:58:38.826Z,1010.61
2018-02-06T16:59:38.703Z,1010.61
2018-02-06T17:00:38.608Z,1010.59
2018-02-06T17:01:38.486Z,1010.60
2018-02-06T17:02:38.383Z,1010.59
2018-02-06T17:03:38.278Z,1010.56
2018-02-06T17:04:38.158Z,1010.55
2018-02-06T17:05:38.054Z,1010.51
2018-02-06T17:06:37.943Z,1010.54
2018-02-06T17:07:37.839Z,1010.51
2018-02-06T17:08:37.749Z,1010.54
2018-02-06T17:09:37.621Z,1010.56
2018-02-06T17:10:37.517Z,1010.51
2018-02-06T17:11:37.402Z,1010.53
2018-02-06T17:12:37.294Z,1010.50
2018-02-06T17:13:37.191Z,1010.53
2018-02-06T17:14:37.117Z,1010.55
2018-02-06T17:15:36.988Z,1010.52
2018-02-06T17:16:36.859Z,1010.52
2018-02-06T17:17:36.759Z,1010.57
2018-02-06T17:18:36.638Z,1010.57
2018-02-06T17:19:36.540Z,1010.58
2018-02-06T17:20:36.432Z,1010.61
2018-02-06T17:21:36.318Z,1010.61
2018-02-06T17:22:36.216Z,1010.57
2018-02-06T17:23:36.096Z,1010.55
2018-02-06T17:24:35.994Z,1010.58
2018-02-06T17:25:35.891Z,1010.62
2018-02-06T17:26:35.772Z,1010.60
2018-02-06T17:27:35.676Z,1010.65
2018-02-06T17:28:35.555Z,1010.62
2018-02-06T17:29:35.451Z,1010.61
2018-02-06T17:30:35.354Z,1010.58
2018-02-06T17:31:35.237Z,1010.60
2018-02-06T17:32:35.133Z,1010.62
2018-02-06T17:33:35.017Z,1010.69
2018-02-06T17:34:34.909Z,1010.63
2018-02-06T17:35:34.815Z,1010.63
2018-02-06T17:36:34.689Z,1010.65
2018-02-06T17:37:34.586Z,1010.59
2018-02-06T17:38:34.478Z,1010.58
2018-02-06T17:39:34.372Z,1010.58
2018-02-06T17:40:34.258Z,1010.61
2018-02-06T17:41:34.157Z,1010.56
2018-02-06T17:42:34.048Z,1010.62
2018-02-06T17:43:33.933Z,1010.63
2018-02-06T17:44:33.824Z,1010.65
2018-02-06T17:45:33.713Z,1010.61
2018-02-06T17:46:33.610Z,1010.64
2018-02-06T17:47:33.512Z,1010.63
2018-02-06T17:48:33.392Z,1010.63
2018-02-06T17:49:33.289Z,1010.62
2018-02-06T17:50:33.171Z,1010.59
2018-02-06T17:51:33.072Z,1010.62
2018-02-06T17:52:32.953Z,1010.62
2018-02-06T17:53:32.849Z,1010.57
2018-02-06T17:54:32.745Z,1010.54
2018-02-06T17:55:32.632Z,1010.60
2018-02-06T17:56:32.530Z,1010.57
2018-02-06T17:57:32.412Z,1010.54
2018-02-06T17:58:32.307Z,1010.55
2018-02-06T17:59:32.235Z,1010.55
2018-02-06T18:00:32.090Z,1010.46
2018-02-06T18:01:31.985Z,1010.49
2018-02-06T18:02:31.874Z,1010.50
2018-02-06T18:03:31.764Z,1010.49
2018-02-06T18:04:31.650Z,1010.48
2018-02-06T18:05:31.548Z,1010.48
2018-02-06T18:06:31.442Z,1010.50
2018-02-06T18:07:31.333Z,1010.45
2018-02-06T18:08:31.222Z,1010.46
2018-02-06T18:09:31.122Z,1010.46
2018-02-06T18:10:31.008Z,1010.43
2018-02-06T18:11:30.898Z,1010.42
2018-02-06T18:12:30.792Z,1010.44
2018-02-06T18:13:30.682Z,1010.39
2018-02-06T18:14:30.564Z,1010.42
2018-02-06T18:15:30.466Z,1010.44
2018-02-06T18:16:30.360Z,1010.43
2018-02-06T18:17:30.241Z,1010.40
2018-02-06T18:18:30.143Z,1010.40
2018-02-06T18:19:30.035Z,1010.41
2018-02-06T18:20:29.924Z,1010.40
2018-02-06T18:21:29.820Z,1010.40
2018-02-06T18:22:29.700Z,1010.41
2018-02-06T18:23:29.598Z,1010.35
2018-02-06T18:24:29.495Z,1010.33
2018-02-06T18:25:29.381Z,1010.37
2018-02-06T18:26:29.277Z,1010.38
2018-02-06T18:27:29.158Z,1010.36
2018-02-06T18:28:29.066Z,1010.36
2018-02-06T18:29:28.958Z,1010.33
2018-02-06T18:30:28.841Z,1010.34
2018-02-06T18:31:28.739Z,1010.32
2018-02-06T18:32:28.618Z,1010.30
2018-02-06T18:33:28.512Z,1010.30
2018-02-06T18:34:28.412Z,1010.31
2018-02-06T18:35:28.291Z,1010.27
2018-02-06T18:36:28.194Z,1010.33
2018-02-06T18:37:28.084Z,1010.31
2018-02-06T18:38:27.971Z,1010.27
2018-02-06T18:39:27.873Z,1010.30
2018-02-06T18:40:27.758Z,1010.35
2018-02-06T18:41:27.650Z,1010.36
2018-02-06T18:42:27.554Z,1010.30
2018-02-06T18:43:27.436Z,1010.34
2018-02-06T18:44:27.329Z,1010.30
2018-02-06T18:45:27.220Z,1010.36
2018-02-06T18:46:27.110Z,1010.34
2018-02-06T18:47:27.009Z,1010.33
2018-02-06T18:48:26.919Z,1010.33
2018-02-06T18:49:26.785Z,1010.35
2018-02-06T18:50:26.674Z,1010.40
2018-02-06T18:51:26.572Z,1010.37
2018-02-06T18:52:26.464Z,1010.38
2018-02-06T18:53:26.402Z,1010.37
2018-02-06T18:54:26.248Z,1010.39
2018-02-06T18:55:26.140Z,1010.36
2018-02-06T18:56:26.027Z,1010.34
2018-02-06T18:57:25.924Z,1010.34
2018-02-06T18:58:25.803Z,1010.35
2018-02-06T18:59:25.710Z,1010.38
2018-02-06T19:00:25.601Z,1010.39
2018-02-06T19:01:25.484Z,1010.39
2018-02-06T19:02:25.384Z,1010.40
2018-02-06T19:03:25.264Z,1010.42
2018-02-06T19:04:25.162Z,1010.39
2018-02-06T19:05:25.060Z,1010.49
2018-02-06T19:06:24.941Z,1010.52
2018-02-06T19:07:24.847Z,1010.51
2018-02-06T19:08:24.739Z,1010.52
2018-02-06T19:09:24.621Z,1010.52
2018-02-06T19:10:24.517Z,1010.51
2018-02-06T19:11:24.400Z,1010.52
2018-02-06T19:12:24.304Z,1010.52
2018-02-06T19:13:24.197Z,1010.46
2018-02-06T19:14:24.078Z,1010.46
2018-02-06T19:15:23.976Z,1010.47
2018-02-06T19:16:23.886Z,1010.43
2018-02-06T19:17:23.753Z,1010.47
2018-02-06T19:18:23.653Z,1010.41
2018-02-06T19:19:23.536Z,1010.43
2018-02-06T19:20:23.437Z,1010.46
2018-02-06T19:21:23.333Z,1010.42
2018-02-06T19:22:23.216Z,1010.42
2018-02-06T19:23:23.114Z,1010.42
2018-02-06T19:24:22.998Z,1010.35
2018-02-06T19:25:22.893Z,1010.35
2018-02-06T19:26:22.792Z,1010.37
2018-02-06T19:27:22.676Z,1010.30
2018-02-06T19:28:22.571Z,1010.31
2018-02-06T19:29:22.455Z,1010.36
2018-02-06T19:30:22.348Z,1010.35
2018-02-06T19:31:22.250Z,1010.32
2018-02-06T19:32:22.134Z,1010.41
2018-02-06T19:33:22.028Z,1010.36
2018-02-06T19:34:21.930Z,1010.35
2018-02-06T19:35:21.805Z,1010.36
2018-02-06T19:36:21.707Z,1010.34
2018-02-06T19:37:21.596Z,1010.30
2018-02-06T19:38:21.487Z,1010.26
2018-02-06T19:39:21.384Z,1010.25
2018-02-06T19:40:21.267Z,1010.26
2018-02-06T19:41:21.167Z,1010.26
2018-02-06T19:42:21.050Z,1010.28
2018-02-06T19:43:20.943Z,1010.26
2018-02-06T19:44:20.845Z,1010.31
2018-02-06T19:45:20.731Z,1010.26
2018-02-06T19:46:20.620Z,1010.21
2018-02-06T19:47:20.519Z,1010.22
2018-02-06T19:48:20.403Z,1010.22
2018-02-06T19:49:20.303Z,1010.22
2018-02-06T19:50:20.185Z,1010.24
2018-02-06T19:51:20.091Z,1010.25
2018-02-06T19:52:19.981Z,1010.28
2018-02-06T19:53:19.865Z,1010.24
2018-02-06T19:54:19.763Z,1010.28
2018-02-06T19:55:19.649Z,1010.28
2018-02-06T19:56:19.536Z,1010.30
2018-02-06T19:57:19.442Z,1010.32
2018-02-06T19:58:19.321Z,1010.31
2018-02-06T19:59:19.215Z,1010.32
2018-02-06T20:00:19.105Z,1010.32
2018-02-06T20:01:19.001Z,1010.35
2018-02-06T20:02:18.893Z,1010.36
2018-02-06T20:03:18.779Z,1010.37
2018-02-06T20:04:18.671Z,1010.37
2018-02-06T20:05:18.570Z,1010.32
2018-02-06T20:06:18.459Z,1010.33
2018-02-06T20:07:18.363Z,1010.32
2018-02-06T20:08:18.244Z,1010.35
2018-02-06T20:09:18.142Z,1010.28
2018-02-06T20:10:18.030Z,1010.30
2018-02-06T20:11:17.920Z,1010.31
2018-02-06T20:12:17.810Z,1010.29
2018-02-06T20:13:17.707Z,1010.28
2018-02-06T20:14:17.594Z,1010.27
2018-02-06T20:15:17.486Z,1010.28
2018-02-06T20:16:17.377Z,1010.25
2018-02-06T20:17:17.275Z,1010.24
2018-02-06T20:18:17.162Z,1010.24
2018-02-06T20:19:17.054Z,1010.26
2018-02-06T20:20:16.946Z,1010.23
2018-02-06T20:21:16.830Z,1010.24
2018-02-06T20:22:16.730Z,1010.26
2018-02-06T20:23:16.626Z,1010.28
2018-02-06T20:24:16.517Z,1010.35
2018-02-06T20:25:16.406Z,1010.42
2018-02-06T20:26:16.289Z,1010.39
2018-02-06T20:27:16.187Z,1010.38
2018-02-06T20:28:16.080Z,1010.38
2018-02-06T20:29:15.964Z,1010.40
2018-02-06T20:30:15.867Z,1010.38
2018-02-06T20:31:15.760Z,1010.43
2018-02-06T20:32:15.651Z,1010.37
2018-02-06T20:33:15.544Z,1010.39
2018-02-06T20:34:15.426Z,1010.38
2018-02-06T20:35:15.325Z,1010.43
2018-02-06T20:36:15.216Z,1010.44
2018-02-06T20:37:15.104Z,1010.42
2018-02-06T20:38:15.001Z,1010.41
2018-02-06T20:39:14.895Z,1010.44
2018-02-06T20:40:14.815Z,1010.43
2018-02-06T20:41:14.680Z,1010.46
2018-02-06T20:42:14.562Z,1010.43
2018-02-06T20:43:14.465Z,1010.39
2018-02-06T20:44:14.344Z,1010.38
2018-02-06T20:45:14.242Z,1010.35
2018-02-06T20:46:14.140Z,1010.33
2018-02-06T20:47:14.020Z,1010.34
2018-02-06T20:48:13.917Z,1010.41
2018-02-06T20:49:13.803Z,1010.34
2018-02-06T20:50:13.700Z,1010.30
2018-02-06T20:51:13.597Z,1010.30
2018-02-06T20:52:13.477Z,1010.23
2018-02-06T20:53:13.373Z,1010.19
2018-02-06T20:54:13.274Z,1010.18
2018-02-06T20:55:13.153Z,1010.13
2018-02-06T20:56:13.060Z,1010.18
2018-02-06T20:57:12.937Z,1010.13
2018-02-06T20:58:12.830Z,1010.12
2018-02-06T20:59:12.731Z,1010.16
2018-02-06T21:00:12.622Z,1010.11
2018-02-06T21:01:12.513Z,1010.14
2018-02-06T21:02:12.398Z,1010.13
2018-02-06T21:03:12.298Z,1010.08
2018-02-06T21:04:12.189Z,1010.10
2018-02-06T21:05:12.072Z,1010.09
2018-02-06T21:06:11.973Z,1010.17
2018-02-06T21:07:11.854Z,1010.14
2018-02-06T21:08:11.750Z,1010.12
2018-02-06T21:09:11.652Z,1010.10
2018-02-06T21:10:11.528Z,1010.11
2018-02-06T21:11:11.430Z,1010.07
2018-02-06T21:12:11.310Z,1010.08
2018-02-06T21:13:11.207Z,1010.12
2018-02-06T21:14:11.107Z,1010.14
2018-02-06T21:15:10.989Z,1010.11
2018-02-06T21:16:10.889Z,1010.12
2018-02-06T21:17:10.773Z,1010.10
2018-02-06T21:18:10.666Z,1010.10
2018-02-06T21:19:10.568Z,1010.11
2018-02-06T21:20:10.445Z,1010.11
2018-02-06T21:21:10.345Z,1010.11
2018-02-06T21:22:10.235Z,1010.10
2018-02-06T21:23:10.128Z,1010.05
2018-02-06T21:24:10.025Z,1010.04
2018-02-06T21:25:09.912Z,1010.12
2018-02-06T21:26:09.802Z,1010.11
2018-02-06T21:27:09.690Z,1010.15
2018-02-06T21:28:09.580Z,1010.14
2018-02-06T21:29:09.476Z,1010.13
2018-02-06T21:30:09.366Z,1010.12
2018-02-06T21:31:09.259Z,1010.07
2018-02-06T21:32:09.163Z,1010.07
2018-02-06T21:33:09.043Z,1010.09
2018-02-06T21:34:08.935Z,1010.09
2018-02-06T21:35:08.827Z,1010.03
2018-02-06T21:36:08.719Z,1010.05
2018-02-06T21:37:08.618Z,1010.00
2018-02-06T21:38:08.504Z,1010.05
2018-02-06T21:39:08.399Z,1010.02
2018-02-06T21:40:08.287Z,1010.04
2018-02-06T21:41:08.179Z,1010.03
2018-02-06T21:42:08.072Z,1009.98
2018-02-06T21:43:07.964Z,1009.98
2018-02-06T21:44:07.858Z,1009.97
2018-02-06T21:45:07.741Z,1009.94
2018-02-06T21:46:07.643Z,1009.96
2018-02-06T21:47:07.532Z,1009.99
2018-02-06T21:48:07.421Z,1009.96
2018-02-06T21:49:07.321Z,1009.99
2018-02-06T21:50:07.209Z,1009.96
2018-02-06T21:51:07.097Z,1009.96
2018-02-06T21:52:06.989Z,1009.91
2018-02-06T21:53:06.878Z,1009.96
2018-02-06T21:54:06.773Z,1009.91
2018-02-06T21:55:06.668Z,1009.93
2018-02-06T21:56:06.557Z,1009.90
2018-02-06T21:57:06.460Z,1009.85
2018-02-06T21:58:06.336Z,1009.89
2018-02-06T21:59:06.231Z,1009.88
2018-02-06T22:00:06.123Z,1009.89
2018-02-06T22:01:06.010Z,1009.91
2018-02-06T22:02:05.910Z,1009.98
2018-02-06T22:03:05.792Z,1009.95
2018-02-06T22:04:05.693Z,1010.00
2018-02-06T22:05:05.596Z,1010.02
2018-02-06T22:06:05.469Z,1010.01
2018-02-06T22:07:05.377Z,1010.04
2018-02-06T22:08:05.249Z,1010.00
2018-02-06T22:09:05.150Z,1009.97
2018-02-06T22:10:05.054Z,1009.98
2018-02-06T22:11:04.959Z,1010.01
2018-02-06T22:12:04.828Z,1009.98
2018-02-06T22:13:04.727Z,1010.01
2018-02-06T22:14:04.604Z,1010.04
2018-02-06T22:15:04.510Z,1010.00
2018-02-06T22:16:04.387Z,1010.00
2018-02-06T22:17:04.281Z,1010.07
2018-02-06T22:18:04.168Z,1010.04
2018-02-06T22:19:04.070Z,1010.07
2018-02-06T22:20:03.967Z,1010.08
2018-02-06T22:21:03.849Z,1009.96
2018-02-06T22:22:03.745Z,1010.03
2018-02-06T22:23:03.628Z,1010.00
2018-02-06T22:24:03.534Z,1009.99
2018-02-06T22:25:03.409Z,1009.93
2018-02-06T22:26:03.307Z,1009.99
2018-02-06T22:27:03.198Z,1009.94
2018-02-06T22:28:03.085Z,1009.99
2018-02-06T22:29:02.985Z,1010.04
2018-02-06T22:30:02.868Z,1009.97
2018-02-06T22:31:02.765Z,1010.00
2018-02-06T22:32:02.661Z,1010.04
2018-02-06T22:33:02.542Z,1010.04
2018-02-06T22:34:02.442Z,1010.04
2018-02-06T22:35:02.329Z,1010.07
2018-02-06T22:36:02.225Z,1010.06
2018-02-06T22:37:02.124Z,1010.04
2018-02-06T22:38:02.024Z,1010.06
2018-02-06T22:39:01.908Z,1010.02
2018-02-06T22:40:01.780Z,1010.04
2018-02-06T22:41:01.676Z,1010.04
2018-02-06T22:42:01.577Z,1010.09
2018-02-06T22:43:01.460Z,1010.04
2018-02-06T22:44:01.391Z,1010.06
2018-02-06T22:45:01.243Z,1010.01
2018-02-06T22:46:01.136Z,1010.08
2018-02-06T22:47:01.039Z,1010.04
2018-02-06T22:48:00.914Z,1010.02
2018-02-06T22:49:00.815Z,1010.00
2018-02-06T22:50:00.700Z,1010.02
2018-02-06T22:51:00.596Z,1010.03
2018-02-06T22:52:00.482Z,1010.02
2018-02-06T22:53:00.381Z,1010.01
2018-02-06T22:54:00.269Z,1009.97
2018-02-06T22:55:00.161Z,1009.98
2018-02-06T22:56:00.053Z,1009.94
2018-02-06T22:56:59.949Z,1009.98
2018-02-06T22:57:59.852Z,1009.95
2018-02-06T22:58:59.731Z,1009.94
2018-02-06T22:59:59.617Z,1009.95
2018-02-06T23:00:59.512Z,1009.99
2018-02-06T23:01:59.411Z,1010.00
2018-02-06T23:02:59.295Z,1010.02
2018-02-06T23:03:59.189Z,1010.00
2018-02-06T23:04:59.073Z,1009.99
2018-02-06T23:05:58.976Z,1010.01
2018-02-06T23:06:58.873Z,1010.07
2018-02-06T23:07:58.748Z,1009.99
2018-02-06T23:08:58.649Z,1010.02
2018-02-06T23:09:58.534Z,1009.98
2018-02-06T23:10:58.430Z,1010.00
2018-02-06T23:11:58.329Z,1010.00
2018-02-06T23:12:58.213Z,1010.00
2018-02-06T23:13:58.105Z,1009.93
2018-02-06T23:14:58.005Z,1009.95
2018-02-06T23:15:57.885Z,1009.92
2018-02-06T23:16:57.785Z,1009.92
2018-02-06T23:17:57.675Z,1009.87
2018-02-06T23:18:57.589Z,1009.92
2018-02-06T23:19:57.455Z,1009.94
2018-02-06T23:20:57.349Z,1009.94
2018-02-06T23:21:57.242Z,1009.91
2018-02-06T23:22:57.130Z,1009.94
2018-02-06T23:23:57.023Z,1009.91
2018-02-06T23:24:56.908Z,1009.96
2018-02-06T23:25:56.809Z,1009.93
2018-02-06T23:26:56.698Z,1009.95
2018-02-06T23:27:56.598Z,1009.97
2018-02-06T23:28:56.489Z,1009.94
2018-02-06T23:29:56.364Z,1009.98
2018-02-06T23:30:56.266Z,1009.91
2018-02-06T23:31:56.158Z,1009.92
2018-02-06T23:32:56.042Z,1009.93
2018-02-06T23:33:55.943Z,1009.90
2018-02-06T23:34:55.827Z,1009.95
2018-02-06T23:35:55.723Z,1009.97
2018-02-06T23:36:55.639Z,1009.99
2018-02-06T23:37:55.499Z,1009.96
2018-02-06T23:38:55.404Z,1009.97
2018-02-06T23:39:55.280Z,1009.95
2018-02-06T23:40:55.184Z,1010.00
2018-02-06T23:41:55.078Z,1009.99
2018-02-06T23:42:54.959Z,1009.95
2018-02-06T23:43:54.860Z,1009.95
2018-02-06T23:44:54.744Z,1009.93
2018-02-06T23:45:54.641Z,1009.95
2018-02-06T23:46:54.541Z,1009.90
2018-02-06T23:47:54.429Z,1009.88
2018-02-06T23:48:54.312Z,1009.89
2018-02-06T23:49:54.203Z,1009.94
2018-02-06T23:50:54.095Z,1009.93
2018-02-06T23:51:53.996Z,1009.90
2018-02-06T23:52:53.897Z,1009.90
2018-02-06T23:53:53.772Z,1009.87
2018-02-06T23:54:53.664Z,1009.85
2018-02-06T23:55:53.559Z,1009.84
2018-02-06T23:56:53.439Z,1009.80
2018-02-06T23:57:53.339Z,1009.87
2018-02-06T23:58:53.234Z,1009.84
2018-02-06T23:59:53.117Z,1009.81
